sensor_id;sensor_type;location;lat;lon;timestamp;temperature;humidity
5118;DHT22;2578;51.622;7.046;2022-08-01T00:00:27;19.00;99.90
5118;DHT22;2578;51.622;7.046;2022-08-01T00:02:53;18.90;99.90
5118;DHT22;2578;51.622;7.046;2022-08-01T00:05:19;18.90;99.90
5118;DHT22;2578;51.622;7.046;2022-08-01T00:07:44;18.90;99.90
5118;DHT22;2578;51.622;7.046;2022-08-01T00:10:12;19.00;99.90
5118;DHT22;2578;51.622;7.046;2022-08-01T00:12:39;19.00;99.90
5118;DHT22;2578;51.622;7.046;2022-08-01T00:15:06;19.00;99.90
5118;DHT22;2578;51.622;7.046;2022-08-01T00:17:32;19.00;99.90
5118;DHT22;2578;51.622;7.046;2022-08-01T00:19:58;19.00;99.90
5118;DHT22;2578;51.622;7.046;2022-08-01T00:22:24;19.00;99.90
5118;DHT22;2578;51.622;7.046;2022-08-01T00:24:49;19.00;99.90
5118;DHT22;2578;51.622;7.046;2022-08-01T00:27:15;19.00;99.90
5118;DHT22;2578;51.622;7.046;2022-08-01T00:29:41;19.00;99.90
5118;DHT22;2578;51.622;7.046;2022-08-01T00:32:06;19.00;99.90
5118;DHT22;2578;51.622;7.046;2022-08-01T00:34:32;18.90;99.90
5118;DHT22;2578;51.622;7.046;2022-08-01T00:36:58;19.00;99.90
5118;DHT22;2578;51.622;7.046;2022-08-01T00:39:24;19.00;99.90
5118;DHT22;2578;51.622;7.046;2022-08-01T00:41:49;19.00;99.90
5118;DHT22;2578;51.622;7.046;2022-08-01T00:44:15;19.00;99.90
5118;DHT22;2578;51.622;7.046;2022-08-01T00:46:41;18.90;99.90
5118;DHT22;2578;51.622;7.046;2022-08-01T00:49:07;19.00;99.90
5118;DHT22;2578;51.622;7.046;2022-08-01T00:51:33;19.00;99.90
5118;DHT22;2578;51.622;7.046;2022-08-01T00:53:59;19.00;99.90
5118;DHT22;2578;51.622;7.046;2022-08-01T00:56:26;18.90;99.90
5118;DHT22;2578;51.622;7.046;2022-08-01T00:58:53;18.90;99.90
5118;DHT22;2578;51.622;7.046;2022-08-01T01:01:18;19.00;99.90
5118;DHT22;2578;51.622;7.046;2022-08-01T01:03:46;18.90;99.90
5118;DHT22;2578;51.622;7.046;2022-08-01T01:06:34;18.90;99.90
5118;DHT22;2578;51.622;7.046;2022-08-01T01:15:10;18.90;99.90
5118;DHT22;2578;51.622;7.046;2022-08-01T01:17:45;18.90;99.90
5118;DHT22;2578;51.622;7.046;2022-08-01T01:20:14;18.90;99.90
5118;DHT22;2578;51.622;7.046;2022-08-01T01:30:52;18.80;99.90
5118;DHT22;2578;51.622;7.046;2022-08-01T01:33:21;18.80;99.90
5118;DHT22;2578;51.622;7.046;2022-08-01T01:35:52;18.80;99.90
5118;DHT22;2578;51.622;7.046;2022-08-01T01:38:21;18.80;99.90
5118;DHT22;2578;51.622;7.046;2022-08-01T01:40:48;18.80;99.90
5118;DHT22;2578;51.622;7.046;2022-08-01T01:43:15;18.80;99.90
5118;DHT22;2578;51.622;7.046;2022-08-01T01:45:44;18.80;99.90
5118;DHT22;2578;51.622;7.046;2022-08-01T01:48:13;18.80;99.90
5118;DHT22;2578;51.622;7.046;2022-08-01T01:50:40;18.80;99.90
5118;DHT22;2578;51.622;7.046;2022-08-01T01:53:09;18.80;99.90
5118;DHT22;2578;51.622;7.046;2022-08-01T01:55:39;18.80;99.90
5118;DHT22;2578;51.622;7.046;2022-08-01T01:58:06;18.80;99.90
5118;DHT22;2578;51.622;7.046;2022-08-01T02:00:34;18.80;99.90
5118;DHT22;2578;51.622;7.046;2022-08-01T02:03:05;18.80;99.90
5118;DHT22;2578;51.622;7.046;2022-08-01T02:05:32;18.80;99.90
5118;DHT22;2578;51.622;7.046;2022-08-01T02:08:01;18.80;99.90
5118;DHT22;2578;51.622;7.046;2022-08-01T02:10:29;18.80;99.90
5118;DHT22;2578;51.622;7.046;2022-08-01T02:12:56;18.80;99.90
5118;DHT22;2578;51.622;7.046;2022-08-01T02:15:23;18.80;99.90
5118;DHT22;2578;51.622;7.046;2022-08-01T02:17:50;18.80;99.90
5118;DHT22;2578;51.622;7.046;2022-08-01T02:20:16;18.80;99.90
5118;DHT22;2578;51.622;7.046;2022-08-01T02:23:01;18.80;99.90
5118;DHT22;2578;51.622;7.046;2022-08-01T02:25:37;18.80;99.90
5118;DHT22;2578;51.622;7.046;2022-08-01T02:28:10;18.80;99.90
5118;DHT22;2578;51.622;7.046;2022-08-01T02:30:39;18.80;99.90
5118;DHT22;2578;51.622;7.046;2022-08-01T02:33:12;18.80;99.90
5118;DHT22;2578;51.622;7.046;2022-08-01T02:35:41;18.80;99.90
5118;DHT22;2578;51.622;7.046;2022-08-01T02:38:10;18.70;99.90
5118;DHT22;2578;51.622;7.046;2022-08-01T02:40:38;18.70;99.90
5118;DHT22;2578;51.622;7.046;2022-08-01T02:43:05;18.70;99.90
5118;DHT22;2578;51.622;7.046;2022-08-01T02:45:33;18.70;99.90
5118;DHT22;2578;51.622;7.046;2022-08-01T02:48:12;18.70;99.90
5118;DHT22;2578;51.622;7.046;2022-08-01T02:50:41;18.70;99.90
5118;DHT22;2578;51.622;7.046;2022-08-01T02:53:08;18.70;99.90
5118;DHT22;2578;51.622;7.046;2022-08-01T02:55:36;18.70;99.90
5118;DHT22;2578;51.622;7.046;2022-08-01T02:58:03;18.60;99.90
5118;DHT22;2578;51.622;7.046;2022-08-01T03:00:30;18.70;99.90
5118;DHT22;2578;51.622;7.046;2022-08-01T03:02:57;18.60;99.90
5118;DHT22;2578;51.622;7.046;2022-08-01T03:05:25;18.50;99.90
5118;DHT22;2578;51.622;7.046;2022-08-01T03:07:52;18.40;99.90
5118;DHT22;2578;51.622;7.046;2022-08-01T03:10:19;18.40;99.90
5118;DHT22;2578;51.622;7.046;2022-08-01T03:12:46;18.40;99.90
5118;DHT22;2578;51.622;7.046;2022-08-01T03:15:14;18.20;99.90
5118;DHT22;2578;51.622;7.046;2022-08-01T03:17:42;18.30;99.90
5118;DHT22;2578;51.622;7.046;2022-08-01T03:20:11;18.30;99.90
5118;DHT22;2578;51.622;7.046;2022-08-01T03:22:39;18.30;99.90
5118;DHT22;2578;51.622;7.046;2022-08-01T03:25:06;18.20;99.90
5118;DHT22;2578;51.622;7.046;2022-08-01T03:27:32;18.20;99.90
5118;DHT22;2578;51.622;7.046;2022-08-01T03:30:03;18.20;99.90
5118;DHT22;2578;51.622;7.046;2022-08-01T03:32:30;18.30;99.90
5118;DHT22;2578;51.622;7.046;2022-08-01T03:34:56;18.20;99.90
5118;DHT22;2578;51.622;7.046;2022-08-01T03:37:34;18.20;99.90
5118;DHT22;2578;51.622;7.046;2022-08-01T03:40:13;18.20;99.90
5118;DHT22;2578;51.622;7.046;2022-08-01T03:42:48;18.20;99.90
5118;DHT22;2578;51.622;7.046;2022-08-01T03:45:23;18.20;99.90
5118;DHT22;2578;51.622;7.046;2022-08-01T03:47:55;18.20;99.90
5118;DHT22;2578;51.622;7.046;2022-08-01T03:50:22;18.30;99.90
5118;DHT22;2578;51.622;7.046;2022-08-01T03:52:51;18.20;99.90
5118;DHT22;2578;51.622;7.046;2022-08-01T03:55:18;18.20;99.90
5118;DHT22;2578;51.622;7.046;2022-08-01T03:57:45;18.20;99.90
5118;DHT22;2578;51.622;7.046;2022-08-01T04:00:12;18.20;99.90
5118;DHT22;2578;51.622;7.046;2022-08-01T04:02:38;18.20;99.90
5118;DHT22;2578;51.622;7.046;2022-08-01T04:05:05;18.30;99.90
5118;DHT22;2578;51.622;7.046;2022-08-01T04:07:32;18.20;99.90
5118;DHT22;2578;51.622;7.046;2022-08-01T04:10:00;18.20;99.90
5118;DHT22;2578;51.622;7.046;2022-08-01T04:12:26;18.20;99.90
5118;DHT22;2578;51.622;7.046;2022-08-01T04:14:52;18.30;99.90
5118;DHT22;2578;51.622;7.046;2022-08-01T04:17:18;18.30;99.90
5118;DHT22;2578;51.622;7.046;2022-08-01T04:19:44;18.30;99.90
5118;DHT22;2578;51.622;7.046;2022-08-01T04:22:11;18.30;99.90
5118;DHT22;2578;51.622;7.046;2022-08-01T04:24:39;18.30;99.90
5118;DHT22;2578;51.622;7.046;2022-08-01T04:27:13;17.50;99.90
5118;DHT22;2578;51.622;7.046;2022-08-01T04:29:40;18.30;99.90
5118;DHT22;2578;51.622;7.046;2022-08-01T04:32:08;18.30;99.90
5118;DHT22;2578;51.622;7.046;2022-08-01T04:34:38;18.40;99.90
5118;DHT22;2578;51.622;7.046;2022-08-01T04:37:08;18.30;99.90
5118;DHT22;2578;51.622;7.046;2022-08-01T04:39:37;18.30;99.90
5118;DHT22;2578;51.622;7.046;2022-08-01T04:42:04;18.40;99.90
5118;DHT22;2578;51.622;7.046;2022-08-01T04:44:31;18.50;99.90
5118;DHT22;2578;51.622;7.046;2022-08-01T04:46:59;18.50;99.90
5118;DHT22;2578;51.622;7.046;2022-08-01T04:49:32;18.50;99.90
5118;DHT22;2578;51.622;7.046;2022-08-01T04:51:58;18.50;99.90
5118;DHT22;2578;51.622;7.046;2022-08-01T04:54:29;18.50;99.90
5118;DHT22;2578;51.622;7.046;2022-08-01T04:56:56;18.50;99.90
5118;DHT22;2578;51.622;7.046;2022-08-01T04:59:33;18.50;99.90
5118;DHT22;2578;51.622;7.046;2022-08-01T05:04:33;18.60;99.90
5118;DHT22;2578;51.622;7.046;2022-08-01T05:06:59;18.60;99.90
5118;DHT22;2578;51.622;7.046;2022-08-01T05:09:25;18.60;99.90
5118;DHT22;2578;51.622;7.046;2022-08-01T05:11:51;18.60;99.90
5118;DHT22;2578;51.622;7.046;2022-08-01T05:14:17;18.70;99.90
5118;DHT22;2578;51.622;7.046;2022-08-01T05:16:42;18.70;99.90
5118;DHT22;2578;51.622;7.046;2022-08-01T05:19:08;18.70;99.90
5118;DHT22;2578;51.622;7.046;2022-08-01T05:21:34;18.70;99.90
5118;DHT22;2578;51.622;7.046;2022-08-01T05:24:00;18.80;99.90
5118;DHT22;2578;51.622;7.046;2022-08-01T05:26:26;18.80;99.90
5118;DHT22;2578;51.622;7.046;2022-08-01T05:28:51;18.80;99.90
5118;DHT22;2578;51.622;7.046;2022-08-01T05:31:17;18.80;99.90
5118;DHT22;2578;51.622;7.046;2022-08-01T05:33:43;18.80;99.90
5118;DHT22;2578;51.622;7.046;2022-08-01T05:36:08;18.90;99.90
5118;DHT22;2578;51.622;7.046;2022-08-01T05:38:35;18.90;99.90
5118;DHT22;2578;51.622;7.046;2022-08-01T05:41:00;18.90;99.90
5118;DHT22;2578;51.622;7.046;2022-08-01T05:43:26;19.00;99.90
5118;DHT22;2578;51.622;7.046;2022-08-01T05:45:52;19.10;99.90
5118;DHT22;2578;51.622;7.046;2022-08-01T05:48:17;19.10;99.90
5118;DHT22;2578;51.622;7.046;2022-08-01T05:50:43;19.10;99.90
5118;DHT22;2578;51.622;7.046;2022-08-01T05:53:09;19.10;99.90
5118;DHT22;2578;51.622;7.046;2022-08-01T05:55:35;19.30;99.90
5118;DHT22;2578;51.622;7.046;2022-08-01T05:58:01;19.30;99.90
5118;DHT22;2578;51.622;7.046;2022-08-01T06:00:27;19.50;99.90
5118;DHT22;2578;51.622;7.046;2022-08-01T06:02:52;19.70;99.90
5118;DHT22;2578;51.622;7.046;2022-08-01T06:05:18;20.00;99.90
5118;DHT22;2578;51.622;7.046;2022-08-01T06:07:44;20.10;99.90
5118;DHT22;2578;51.622;7.046;2022-08-01T06:10:09;20.20;99.90
5118;DHT22;2578;51.622;7.046;2022-08-01T06:12:36;20.30;99.90
5118;DHT22;2578;51.622;7.046;2022-08-01T06:15:06;20.40;99.90
5118;DHT22;2578;51.622;7.046;2022-08-01T06:17:32;20.30;99.90
5118;DHT22;2578;51.622;7.046;2022-08-01T06:19:57;20.30;99.90
5118;DHT22;2578;51.622;7.046;2022-08-01T06:22:23;20.20;99.90
5118;DHT22;2578;51.622;7.046;2022-08-01T06:24:49;20.10;99.90
5118;DHT22;2578;51.622;7.046;2022-08-01T06:27:14;20.10;99.90
5118;DHT22;2578;51.622;7.046;2022-08-01T06:29:40;20.10;99.90
5118;DHT22;2578;51.622;7.046;2022-08-01T06:32:06;20.10;99.90
5118;DHT22;2578;51.622;7.046;2022-08-01T06:34:32;20.10;99.90
5118;DHT22;2578;51.622;7.046;2022-08-01T06:36:57;20.10;99.90
5118;DHT22;2578;51.622;7.046;2022-08-01T06:39:23;20.10;99.90
5118;DHT22;2578;51.622;7.046;2022-08-01T06:41:48;20.10;99.90
5118;DHT22;2578;51.622;7.046;2022-08-01T06:44:14;19.90;99.90
5118;DHT22;2578;51.622;7.046;2022-08-01T06:46:40;19.90;99.90
5118;DHT22;2578;51.622;7.046;2022-08-01T06:49:05;19.70;99.90
5118;DHT22;2578;51.622;7.046;2022-08-01T06:51:31;19.70;99.90
5118;DHT22;2578;51.622;7.046;2022-08-01T06:53:56;19.60;99.90
5118;DHT22;2578;51.622;7.046;2022-08-01T06:56:22;19.50;99.90
5118;DHT22;2578;51.622;7.046;2022-08-01T06:58:49;19.50;99.90
5118;DHT22;2578;51.622;7.046;2022-08-01T07:01:16;19.60;99.90
5118;DHT22;2578;51.622;7.046;2022-08-01T07:03:41;19.80;99.90
5118;DHT22;2578;51.622;7.046;2022-08-01T07:06:07;19.90;99.90
5118;DHT22;2578;51.622;7.046;2022-08-01T07:08:33;19.90;99.90
5118;DHT22;2578;51.622;7.046;2022-08-01T07:10:59;19.80;99.90
5118;DHT22;2578;51.622;7.046;2022-08-01T07:13:28;19.90;99.90
5118;DHT22;2578;51.622;7.046;2022-08-01T07:15:56;19.80;99.90
5118;DHT22;2578;51.622;7.046;2022-08-01T07:18:22;19.80;99.90
5118;DHT22;2578;51.622;7.046;2022-08-01T07:20:49;19.70;99.90
5118;DHT22;2578;51.622;7.046;2022-08-01T07:23:14;19.80;99.90
5118;DHT22;2578;51.622;7.046;2022-08-01T07:25:41;20.00;99.90
5118;DHT22;2578;51.622;7.046;2022-08-01T07:28:07;20.00;99.90
5118;DHT22;2578;51.622;7.046;2022-08-01T07:30:33;20.00;99.90
5118;DHT22;2578;51.622;7.046;2022-08-01T07:32:59;20.10;99.90
5118;DHT22;2578;51.622;7.046;2022-08-01T07:35:25;20.30;99.90
5118;DHT22;2578;51.622;7.046;2022-08-01T07:37:51;20.40;99.90
5118;DHT22;2578;51.622;7.046;2022-08-01T07:40:18;20.70;99.90
5118;DHT22;2578;51.622;7.046;2022-08-01T07:42:45;21.50;99.90
5118;DHT22;2578;51.622;7.046;2022-08-01T07:45:12;21.70;99.90
5118;DHT22;2578;51.622;7.046;2022-08-01T07:47:38;21.80;99.90
5118;DHT22;2578;51.622;7.046;2022-08-01T07:50:04;21.60;99.90
5118;DHT22;2578;51.622;7.046;2022-08-01T07:52:31;21.60;99.90
5118;DHT22;2578;51.622;7.046;2022-08-01T07:54:57;22.10;99.90
5118;DHT22;2578;51.622;7.046;2022-08-01T07:57:24;22.20;99.90
5118;DHT22;2578;51.622;7.046;2022-08-01T07:59:50;22.50;99.90
5118;DHT22;2578;51.622;7.046;2022-08-01T08:02:16;22.50;99.90
5118;DHT22;2578;51.622;7.046;2022-08-01T08:04:42;22.60;99.90
5118;DHT22;2578;51.622;7.046;2022-08-01T08:07:08;22.50;99.90
5118;DHT22;2578;51.622;7.046;2022-08-01T08:09:34;22.50;99.90
5118;DHT22;2578;51.622;7.046;2022-08-01T08:12:00;22.60;99.90
5118;DHT22;2578;51.622;7.046;2022-08-01T08:14:25;23.00;99.90
5118;DHT22;2578;51.622;7.046;2022-08-01T08:16:52;23.00;99.90
5118;DHT22;2578;51.622;7.046;2022-08-01T08:19:18;23.20;99.90
5118;DHT22;2578;51.622;7.046;2022-08-01T08:21:44;23.50;99.90
5118;DHT22;2578;51.622;7.046;2022-08-01T08:24:10;23.50;99.90
5118;DHT22;2578;51.622;7.046;2022-08-01T08:26:45;23.20;99.90
5118;DHT22;2578;51.622;7.046;2022-08-01T08:29:11;22.70;99.90
5118;DHT22;2578;51.622;7.046;2022-08-01T08:31:37;22.60;99.90
5118;DHT22;2578;51.622;7.046;2022-08-01T08:34:03;22.50;99.90
5118;DHT22;2578;51.622;7.046;2022-08-01T08:36:28;22.50;99.90
5118;DHT22;2578;51.622;7.046;2022-08-01T08:38:54;22.80;99.90
5118;DHT22;2578;51.622;7.046;2022-08-01T08:41:21;23.10;99.90
5118;DHT22;2578;51.622;7.046;2022-08-01T08:43:47;23.30;99.90
5118;DHT22;2578;51.622;7.046;2022-08-01T08:46:14;23.60;99.90
5118;DHT22;2578;51.622;7.046;2022-08-01T08:48:41;23.60;99.90
5118;DHT22;2578;51.622;7.046;2022-08-01T08:51:08;23.50;99.90
5118;DHT22;2578;51.622;7.046;2022-08-01T08:53:39;23.60;99.90
5118;DHT22;2578;51.622;7.046;2022-08-01T08:56:09;23.80;99.90
5118;DHT22;2578;51.622;7.046;2022-08-01T08:58:36;23.60;99.90
5118;DHT22;2578;51.622;7.046;2022-08-01T09:01:07;23.60;99.90
5118;DHT22;2578;51.622;7.046;2022-08-01T09:03:34;23.70;99.90
5118;DHT22;2578;51.622;7.046;2022-08-01T09:06:00;23.90;99.90
5118;DHT22;2578;51.622;7.046;2022-08-01T09:08:26;24.00;99.90
5118;DHT22;2578;51.622;7.046;2022-08-01T09:10:51;23.90;99.90
5118;DHT22;2578;51.622;7.046;2022-08-01T09:13:17;23.60;99.90
5118;DHT22;2578;51.622;7.046;2022-08-01T09:15:48;24.00;99.90
5118;DHT22;2578;51.622;7.046;2022-08-01T09:21:20;24.70;99.90
5118;DHT22;2578;51.622;7.046;2022-08-01T09:24:14;24.90;99.90
5118;DHT22;2578;51.622;7.046;2022-08-01T09:26:40;24.90;99.90
5118;DHT22;2578;51.622;7.046;2022-08-01T09:29:08;25.10;99.90
5118;DHT22;2578;51.622;7.046;2022-08-01T09:31:56;24.70;99.90
5118;DHT22;2578;51.622;7.046;2022-08-01T09:34:30;24.80;99.90
5118;DHT22;2578;51.622;7.046;2022-08-01T09:37:06;24.90;99.90
5118;DHT22;2578;51.622;7.046;2022-08-01T09:39:37;24.30;99.90
5118;DHT22;2578;51.622;7.046;2022-08-01T09:42:24;23.70;99.90
5118;DHT22;2578;51.622;7.046;2022-08-01T09:44:50;23.30;99.90
5118;DHT22;2578;51.622;7.046;2022-08-01T09:47:16;23.30;99.90
5118;DHT22;2578;51.622;7.046;2022-08-01T09:49:44;23.80;99.90
5118;DHT22;2578;51.622;7.046;2022-08-01T09:52:19;24.10;99.90
5118;DHT22;2578;51.622;7.046;2022-08-01T09:57:40;24.90;99.90
5118;DHT22;2578;51.622;7.046;2022-08-01T10:00:19;24.80;99.90
5118;DHT22;2578;51.622;7.046;2022-08-01T10:02:45;24.10;99.90
5118;DHT22;2578;51.622;7.046;2022-08-01T10:05:11;23.90;99.90
5118;DHT22;2578;51.622;7.046;2022-08-01T10:08:07;23.90;99.90
5118;DHT22;2578;51.622;7.046;2022-08-01T10:10:32;23.80;99.90
5118;DHT22;2578;51.622;7.046;2022-08-01T10:13:01;24.00;99.90
5118;DHT22;2578;51.622;7.046;2022-08-01T10:15:28;24.60;99.90
5118;DHT22;2578;51.622;7.046;2022-08-01T10:17:57;24.70;99.90
5118;DHT22;2578;51.622;7.046;2022-08-01T10:20:28;24.70;99.90
5118;DHT22;2578;51.622;7.046;2022-08-01T10:23:02;24.70;99.90
5118;DHT22;2578;51.622;7.046;2022-08-01T10:25:38;24.90;99.90
5118;DHT22;2578;51.622;7.046;2022-08-01T10:28:13;24.80;99.90
5118;DHT22;2578;51.622;7.046;2022-08-01T10:30:42;24.50;99.90
5118;DHT22;2578;51.622;7.046;2022-08-01T10:33:08;24.30;99.90
5118;DHT22;2578;51.622;7.046;2022-08-01T10:35:34;24.00;99.90
5118;DHT22;2578;51.622;7.046;2022-08-01T10:38:02;24.10;99.90
5118;DHT22;2578;51.622;7.046;2022-08-01T10:40:43;24.00;99.90
5118;DHT22;2578;51.622;7.046;2022-08-01T10:43:28;24.00;99.90
5118;DHT22;2578;51.622;7.046;2022-08-01T10:45:54;24.30;99.90
5118;DHT22;2578;51.622;7.046;2022-08-01T10:49:25;24.30;99.90
5118;DHT22;2578;51.622;7.046;2022-08-01T10:51:39;23.80;99.90
5118;DHT22;2578;51.622;7.046;2022-08-01T10:54:10;23.90;99.90
5118;DHT22;2578;51.622;7.046;2022-08-01T10:57:01;24.20;99.90
5118;DHT22;2578;51.622;7.046;2022-08-01T10:59:33;24.90;99.90
5118;DHT22;2578;51.622;7.046;2022-08-01T11:02:03;25.20;99.90
5118;DHT22;2578;51.622;7.046;2022-08-01T11:07:11;25.00;99.90
5118;DHT22;2578;51.622;7.046;2022-08-01T11:09:42;24.90;99.90
5118;DHT22;2578;51.622;7.046;2022-08-01T11:12:15;24.80;99.90
5118;DHT22;2578;51.622;7.046;2022-08-01T11:17:46;25.70;99.90
5118;DHT22;2578;51.622;7.046;2022-08-01T11:31:24;26.30;99.90
5118;DHT22;2578;51.622;7.046;2022-08-01T11:38:42;27.20;99.90
5118;DHT22;2578;51.622;7.046;2022-08-01T11:41:29;27.00;99.90
5118;DHT22;2578;51.622;7.046;2022-08-01T11:46:52;27.20;99.90
5118;DHT22;2578;51.622;7.046;2022-08-01T11:52:09;27.50;99.90
5118;DHT22;2578;51.622;7.046;2022-08-01T11:57:10;28.20;93.40
5118;DHT22;2578;51.622;7.046;2022-08-01T11:59:39;28.00;95.10
5118;DHT22;2578;51.622;7.046;2022-08-01T12:02:25;28.00;95.20
5118;DHT22;2578;51.622;7.046;2022-08-01T12:07:24;26.50;99.90
5118;DHT22;2578;51.622;7.046;2022-08-01T12:10:13;25.80;99.90
5118;DHT22;2578;51.622;7.046;2022-08-01T12:15:16;24.00;99.90
5118;DHT22;2578;51.622;7.046;2022-08-01T12:18:04;23.90;99.90
5118;DHT22;2578;51.622;7.046;2022-08-01T12:20:32;23.80;99.90
5118;DHT22;2578;51.622;7.046;2022-08-01T12:23:07;23.90;99.90
5118;DHT22;2578;51.622;7.046;2022-08-01T12:25:34;24.50;99.90
5118;DHT22;2578;51.622;7.046;2022-08-01T12:28:03;24.90;99.90
5118;DHT22;2578;51.622;7.046;2022-08-01T12:30:30;25.70;99.90
5118;DHT22;2578;51.622;7.046;2022-08-01T12:32:57;26.20;99.90
5118;DHT22;2578;51.622;7.046;2022-08-01T12:35:25;25.70;99.90
5118;DHT22;2578;51.622;7.046;2022-08-01T12:38:12;25.60;99.90
5118;DHT22;2578;51.622;7.046;2022-08-01T12:40:42;25.50;99.90
5118;DHT22;2578;51.622;7.046;2022-08-01T12:43:09;25.60;99.90
5118;DHT22;2578;51.622;7.046;2022-08-01T12:45:40;26.30;99.90
5118;DHT22;2578;51.622;7.046;2022-08-01T12:48:10;26.30;99.90
5118;DHT22;2578;51.622;7.046;2022-08-01T12:50:42;25.90;99.90
5118;DHT22;2578;51.622;7.046;2022-08-01T12:53:09;25.60;99.90
5118;DHT22;2578;51.622;7.046;2022-08-01T12:55:50;25.80;99.90
5118;DHT22;2578;51.622;7.046;2022-08-01T12:58:17;26.30;99.90
5118;DHT22;2578;51.622;7.046;2022-08-01T13:00:46;26.70;99.90
5118;DHT22;2578;51.622;7.046;2022-08-01T13:03:17;26.30;99.90
5118;DHT22;2578;51.622;7.046;2022-08-01T13:05:46;26.60;99.90
5118;DHT22;2578;51.622;7.046;2022-08-01T13:08:17;26.70;99.90
5118;DHT22;2578;51.622;7.046;2022-08-01T13:10:44;27.10;99.90
5118;DHT22;2578;51.622;7.046;2022-08-01T13:13:11;26.90;99.90
5118;DHT22;2578;51.622;7.046;2022-08-01T13:15:39;26.00;99.90
5118;DHT22;2578;51.622;7.046;2022-08-01T13:18:31;25.70;99.90
5118;DHT22;2578;51.622;7.046;2022-08-01T13:21:21;25.20;99.90
5118;DHT22;2578;51.622;7.046;2022-08-01T13:24:02;25.00;99.90
5118;DHT22;2578;51.622;7.046;2022-08-01T13:26:58;25.20;99.90
5118;DHT22;2578;51.622;7.046;2022-08-01T13:29:39;25.10;99.90
5118;DHT22;2578;51.622;7.046;2022-08-01T13:32:17;24.90;99.90
5118;DHT22;2578;51.622;7.046;2022-08-01T13:34:44;24.40;99.90
5118;DHT22;2578;51.622;7.046;2022-08-01T13:37:10;24.40;99.90
5118;DHT22;2578;51.622;7.046;2022-08-01T13:39:35;24.40;99.90
5118;DHT22;2578;51.622;7.046;2022-08-01T13:42:13;24.60;99.90
5118;DHT22;2578;51.622;7.046;2022-08-01T13:44:39;25.50;99.90
5118;DHT22;2578;51.622;7.046;2022-08-01T13:47:06;25.50;99.90
5118;DHT22;2578;51.622;7.046;2022-08-01T13:49:32;25.60;99.90
5118;DHT22;2578;51.622;7.046;2022-08-01T13:51:58;25.20;99.90
5118;DHT22;2578;51.622;7.046;2022-08-01T13:54:25;25.20;99.90
5118;DHT22;2578;51.622;7.046;2022-08-01T13:56:52;25.20;99.90
5118;DHT22;2578;51.622;7.046;2022-08-01T13:59:18;25.50;99.90
5118;DHT22;2578;51.622;7.046;2022-08-01T14:01:45;25.70;99.90
5118;DHT22;2578;51.622;7.046;2022-08-01T14:04:12;25.80;99.90
5118;DHT22;2578;51.622;7.046;2022-08-01T14:06:38;25.20;99.90
5118;DHT22;2578;51.622;7.046;2022-08-01T14:09:04;25.10;99.90
5118;DHT22;2578;51.622;7.046;2022-08-01T14:11:31;25.00;99.90
5118;DHT22;2578;51.622;7.046;2022-08-01T14:13:57;24.90;99.90
5118;DHT22;2578;51.622;7.046;2022-08-01T14:16:23;25.20;99.90
5118;DHT22;2578;51.622;7.046;2022-08-01T14:18:49;25.40;99.90
5118;DHT22;2578;51.622;7.046;2022-08-01T14:21:15;25.40;99.90
5118;DHT22;2578;51.622;7.046;2022-08-01T14:23:41;25.20;99.90
5118;DHT22;2578;51.622;7.046;2022-08-01T14:26:08;24.90;99.90
5118;DHT22;2578;51.622;7.046;2022-08-01T14:28:35;24.90;99.90
5118;DHT22;2578;51.622;7.046;2022-08-01T14:31:01;25.10;99.90
5118;DHT22;2578;51.622;7.046;2022-08-01T14:33:27;25.20;99.90
5118;DHT22;2578;51.622;7.046;2022-08-01T14:35:53;25.10;99.90
5118;DHT22;2578;51.622;7.046;2022-08-01T14:38:18;25.10;99.90
5118;DHT22;2578;51.622;7.046;2022-08-01T14:40:45;25.40;99.90
5118;DHT22;2578;51.622;7.046;2022-08-01T14:43:17;25.70;99.90
5118;DHT22;2578;51.622;7.046;2022-08-01T14:45:43;25.30;99.90
5118;DHT22;2578;51.622;7.046;2022-08-01T14:48:09;25.40;99.90
5118;DHT22;2578;51.622;7.046;2022-08-01T14:50:36;25.60;99.90
5118;DHT22;2578;51.622;7.046;2022-08-01T14:53:03;25.60;99.90
5118;DHT22;2578;51.622;7.046;2022-08-01T14:55:30;25.80;99.90
5118;DHT22;2578;51.622;7.046;2022-08-01T14:57:57;25.90;99.90
5118;DHT22;2578;51.622;7.046;2022-08-01T15:00:22;26.00;99.90
5118;DHT22;2578;51.622;7.046;2022-08-01T15:02:48;26.00;99.90
5118;DHT22;2578;51.622;7.046;2022-08-01T15:05:14;26.40;99.90
5118;DHT22;2578;51.622;7.046;2022-08-01T15:07:40;26.50;99.90
5118;DHT22;2578;51.622;7.046;2022-08-01T15:10:06;26.40;99.90
5118;DHT22;2578;51.622;7.046;2022-08-01T15:12:33;26.10;99.90
5118;DHT22;2578;51.622;7.046;2022-08-01T15:15:00;25.60;99.90
5118;DHT22;2578;51.622;7.046;2022-08-01T15:17:28;25.60;99.90
5118;DHT22;2578;51.622;7.046;2022-08-01T15:20:00;25.50;99.90
5118;DHT22;2578;51.622;7.046;2022-08-01T15:22:27;25.20;99.90
5118;DHT22;2578;51.622;7.046;2022-08-01T15:24:55;25.10;99.90
5118;DHT22;2578;51.622;7.046;2022-08-01T15:27:21;25.20;99.90
5118;DHT22;2578;51.622;7.046;2022-08-01T15:29:49;25.30;99.90
5118;DHT22;2578;51.622;7.046;2022-08-01T15:32:15;25.30;99.90
5118;DHT22;2578;51.622;7.046;2022-08-01T15:34:43;25.10;99.90
5118;DHT22;2578;51.622;7.046;2022-08-01T15:37:12;25.10;99.90
5118;DHT22;2578;51.622;7.046;2022-08-01T15:39:38;25.10;99.90
5118;DHT22;2578;51.622;7.046;2022-08-01T15:42:13;25.10;99.90
5118;DHT22;2578;51.622;7.046;2022-08-01T15:44:40;25.20;99.90
5118;DHT22;2578;51.622;7.046;2022-08-01T15:47:07;25.20;99.90
5118;DHT22;2578;51.622;7.046;2022-08-01T15:49:33;25.50;99.90
5118;DHT22;2578;51.622;7.046;2022-08-01T15:52:10;25.80;99.90
5118;DHT22;2578;51.622;7.046;2022-08-01T15:54:36;26.30;98.40
5118;DHT22;2578;51.622;7.046;2022-08-01T15:57:02;26.30;98.20
5118;DHT22;2578;51.622;7.046;2022-08-01T15:59:28;26.20;99.30
5118;DHT22;2578;51.622;7.046;2022-08-01T16:01:54;26.20;99.90
5118;DHT22;2578;51.622;7.046;2022-08-01T16:04:20;25.50;99.90
5118;DHT22;2578;51.622;7.046;2022-08-01T16:06:46;25.50;99.90
5118;DHT22;2578;51.622;7.046;2022-08-01T16:09:12;25.20;99.90
5118;DHT22;2578;51.622;7.046;2022-08-01T16:11:37;25.20;99.90
5118;DHT22;2578;51.622;7.046;2022-08-01T16:14:03;25.40;99.90
5118;DHT22;2578;51.622;7.046;2022-08-01T16:16:29;25.10;99.90
5118;DHT22;2578;51.622;7.046;2022-08-01T16:18:54;24.70;99.90
5118;DHT22;2578;51.622;7.046;2022-08-01T16:21:20;24.60;99.90
5118;DHT22;2578;51.622;7.046;2022-08-01T16:23:48;24.40;99.90
5118;DHT22;2578;51.622;7.046;2022-08-01T16:26:13;24.50;99.90
5118;DHT22;2578;51.622;7.046;2022-08-01T16:28:39;24.60;99.90
5118;DHT22;2578;51.622;7.046;2022-08-01T16:33:32;25.20;99.90
5118;DHT22;2578;51.622;7.046;2022-08-01T16:35:59;25.20;99.90
5118;DHT22;2578;51.622;7.046;2022-08-01T16:38:25;25.30;99.90
5118;DHT22;2578;51.622;7.046;2022-08-01T16:40:51;25.10;99.90
5118;DHT22;2578;51.622;7.046;2022-08-01T16:43:18;24.90;99.90
5118;DHT22;2578;51.622;7.046;2022-08-01T16:45:45;24.60;99.90
5118;DHT22;2578;51.622;7.046;2022-08-01T16:48:12;24.50;99.90
5118;DHT22;2578;51.622;7.046;2022-08-01T16:50:40;24.20;99.90
5118;DHT22;2578;51.622;7.046;2022-08-01T16:53:06;24.10;99.90
5118;DHT22;2578;51.622;7.046;2022-08-01T16:55:32;24.30;99.90
5118;DHT22;2578;51.622;7.046;2022-08-01T16:57:58;24.30;99.90
5118;DHT22;2578;51.622;7.046;2022-08-01T17:00:23;24.40;99.90
5118;DHT22;2578;51.622;7.046;2022-08-01T17:02:51;24.50;99.90
5118;DHT22;2578;51.622;7.046;2022-08-01T17:05:17;24.70;99.90
5118;DHT22;2578;51.622;7.046;2022-08-01T17:07:44;24.70;99.90
5118;DHT22;2578;51.622;7.046;2022-08-01T17:10:10;24.90;99.90